Time;durP1;ratioP1;P1;durP2;ratioP2;P2;SDS_P1;SDS_P2;PMS_P1;PMS_P2;Temp;Humidity;BMP_temperature;BMP_pressure;BME280_temperature;BME280_humidity;BME280_pressure;Samples;Min_cycle;Max_cycle;Signal;HPM_P1;HPM_P2
2022/05/19 00:00:23;;;;;;;;;4.60;3.80;;;;;;;;5043581;28;8870;-78
2022/05/19 00:02:50;;;;;;;;;4.00;4.00;;;;;;;;5041002;28;8866;-77
2022/05/19 00:05:17;;;;;;;;;5.00;5.00;;;;;;;;5041815;28;8867;-77
2022/05/19 00:07:44;;;;;;;;;6.60;4.00;;;;;;;;5040051;28;8881;-77
2022/05/19 00:10:12;;;;;;;;;6.20;5.20;;;;;;;;5036147;28;8868;-77
2022/05/19 00:12:39;;;;;;;;;6.00;6.00;;;;;;;;5041839;28;8851;-77
2022/05/19 00:15:11;;;;;;;;;2.40;2.40;;;;;;;;5038524;28;8887;-78
2022/05/19 00:17:39;;;;;;;;;1.80;1.80;;;;;;;;5041759;28;8871;-79
2022/05/19 00:20:09;;;;;;;;;5.20;3.00;;;;;;;;5040624;28;8909;-77
2022/05/19 00:22:37;;;;;;;;;5.80;5.80;;;;;;;;5043825;28;8891;-78
2022/05/19 00:25:05;;;;;;;;;3.00;3.00;;;;;;;;5035729;28;8925;-78
2022/05/19 00:27:32;;;;;;;;;3.00;3.00;;;;;;;;5041259;28;8886;-78
2022/05/19 00:29:59;;;;;;;;;5.40;5.00;;;;;;;;5040281;28;8859;-79
2022/05/19 00:32:28;;;;;;;;;5.00;5.00;;;;;;;;5040278;28;8827;-79
2022/05/19 00:34:55;;;;;;;;;5.40;4.80;;;;;;;;5038771;28;8851;-78
2022/05/19 00:37:23;;;;;;;;;6.00;6.00;;;;;;;;5039338;28;8882;-78
2022/05/19 00:39:50;;;;;;;;;4.60;4.60;;;;;;;;5037947;28;8916;-78
2022/05/19 00:45:04;;;;;;;;;11.20;8.40;;;;;;;;5041277;28;8847;-79
2022/05/19 00:47:39;;;;;;;;;8.60;6.80;;;;;;;;5040117;28;8887;-79
2022/05/19 00:50:20;;;;;;;;;4.00;4.00;;;;;;;;5039007;28;8870;-78
2022/05/19 00:52:48;;;;;;;;;8.00;7.40;;;;;;;;5039349;28;8893;-78
2022/05/19 00:55:18;;;;;;;;;7.00;7.00;;;;;;;;5041198;28;8892;-79
2022/05/19 00:57:48;;;;;;;;;6.00;6.00;;;;;;;;5037372;28;8909;-79
2022/05/19 01:00:18;;;;;;;;;5.40;5.40;;;;;;;;5035033;28;8887;-79
2022/05/19 01:02:50;;;;;;;;;6.60;6.60;;;;;;;;5038673;28;8894;-79
2022/05/19 01:05:21;;;;;;;;;5.40;5.40;;;;;;;;5040003;28;8891;-79
2022/05/19 01:07:52;;;;;;;;;8.00;6.00;;;;;;;;5039703;28;9355;-79
2022/05/19 01:10:20;;;;;;;;;5.00;5.00;;;;;;;;5038491;28;8895;-79
2022/05/19 01:12:49;;;;;;;;;8.20;7.00;;;;;;;;5041401;28;8856;-79
2022/05/19 01:15:17;;;;;;;;;6.00;6.00;;;;;;;;5041488;28;8892;-79
2022/05/19 01:17:45;;;;;;;;;5.00;5.00;;;;;;;;5038917;28;8874;-79
2022/05/19 01:20:17;;;;;;;;;6.00;6.00;;;;;;;;5039043;28;8889;-79
2022/05/19 01:22:51;;;;;;;;;6.00;6.00;;;;;;;;5044036;28;8898;-79
2022/05/19 01:25:32;;;;;;;;;6.80;6.00;;;;;;;;5041603;28;8873;-79
2022/05/19 01:28:01;;;;;;;;;7.00;7.00;;;;;;;;5043588;28;8924;-79
2022/05/19 01:30:29;;;;;;;;;6.00;6.00;;;;;;;;5043589;28;8843;-79
2022/05/19 01:32:57;;;;;;;;;7.40;6.80;;;;;;;;5042912;28;8871;-80
2022/05/19 01:35:25;;;;;;;;;5.80;5.80;;;;;;;;5043305;28;8859;-79
2022/05/19 01:37:53;;;;;;;;;7.60;6.40;;;;;;;;5039196;28;8894;-79
2022/05/19 01:40:31;;;;;;;;;6.00;4.20;;;;;;;;5042546;28;8875;-79
2022/05/19 01:43:08;;;;;;;;;5.20;5.20;;;;;;;;5042111;28;8863;-79
2022/05/19 01:45:56;;;;;;;;;6.40;6.00;;;;;;;;5063243;28;8891;-79
2022/05/19 01:48:33;;;;;;;;;7.00;5.60;;;;;;;;5040993;28;8861;-79
2022/05/19 01:51:07;;;;;;;;;7.40;7.40;;;;;;;;5041958;28;9018;-79
2022/05/19 01:53:39;;;;;;;;;10.40;7.60;;;;;;;;5043623;28;8877;-78
2022/05/19 01:56:13;;;;;;;;;10.00;8.00;;;;;;;;5037764;28;8855;-79
2022/05/19 01:58:46;;;;;;;;;7.50;6.00;;;;;;;;5041081;28;8899;-79
2022/05/19 02:01:15;;;;;;;;;7.75;7.75;;;;;;;;5038240;28;8815;-79
2022/05/19 02:03:49;;;;;;;;;9.50;8.25;;;;;;;;5041937;28;8963;-79
2022/05/19 02:06:20;;;;;;;;;6.50;6.50;;;;;;;;5039555;28;8900;-79
2022/05/19 02:08:51;;;;;;;;;8.00;7.00;;;;;;;;5042270;28;8875;-79
2022/05/19 02:11:23;;;;;;;;;8.00;8.00;;;;;;;;5043329;28;8942;-78
2022/05/19 02:13:52;;;;;;;;;6.50;6.50;;;;;;;;5041862;28;8858;-79
2022/05/19 02:16:21;;;;;;;;;8.50;8.00;;;;;;;;5039603;28;8859;-79
2022/05/19 02:18:50;;;;;;;;;6.25;6.25;;;;;;;;5042322;28;8878;-79
2022/05/19 02:21:18;;;;;;;;;6.50;6.50;;;;;;;;5040054;28;8895;-80
2022/05/19 02:23:46;;;;;;;;;8.50;6.75;;;;;;;;5044881;28;8877;-80
2022/05/19 02:26:13;;;;;;;;;6.25;6.25;;;;;;;;5041605;28;8902;-79
2022/05/19 02:28:44;;;;;;;;;8.25;8.25;;;;;;;;5042328;28;8882;-80
2022/05/19 02:31:12;;;;;;;;;7.25;7.25;;;;;;;;5045560;28;8823;-80
2022/05/19 02:33:40;;;;;;;;;8.00;6.25;;;;;;;;5044649;28;8899;-79
2022/05/19 02:36:10;;;;;;;;;6.75;6.75;;;;;;;;5049346;28;8867;-80
2022/05/19 02:38:37;;;;;;;;;7.75;7.00;;;;;;;;5041416;28;9737;-79
2022/05/19 02:41:05;;;;;;;;;6.00;6.00;;;;;;;;5046269;28;8953;-79
2022/05/19 02:43:33;;;;;;;;;7.75;6.75;;;;;;;;5042700;28;8875;-79
2022/05/19 02:46:00;;;;;;;;;7.00;7.00;;;;;;;;5049796;28;8926;-79
2022/05/19 02:48:29;;;;;;;;;8.00;8.00;;;;;;;;5046637;28;8854;-79
2022/05/19 02:50:56;;;;;;;;;7.75;7.75;;;;;;;;5041110;28;9686;-80
2022/05/19 02:53:23;;;;;;;;;4.00;4.00;;;;;;;;5041406;28;8867;-80
2022/05/19 02:55:50;;;;;;;;;7.00;7.00;;;;;;;;5045533;28;8879;-80
2022/05/19 02:58:18;;;;;;;;;8.75;8.00;;;;;;;;5047420;28;8878;-80
2022/05/19 03:00:47;;;;;;;;;8.00;8.00;;;;;;;;5040762;28;8812;-79
2022/05/19 03:03:14;;;;;;;;;8.00;8.00;;;;;;;;5045847;28;8886;-79
2022/05/19 03:05:43;;;;;;;;;8.50;7.50;;;;;;;;5038757;28;9001;-78
2022/05/19 03:08:11;;;;;;;;;7.75;7.75;;;;;;;;5045070;28;8907;-79
2022/05/19 03:10:40;;;;;;;;;6.50;6.50;;;;;;;;5050696;28;8852;-79
2022/05/19 03:13:09;;;;;;;;;11.75;11.00;;;;;;;;5044992;28;8890;-79
2022/05/19 03:15:36;;;;;;;;;6.75;6.75;;;;;;;;5043534;28;8933;-79
2022/05/19 03:18:04;;;;;;;;;8.25;7.75;;;;;;;;5047106;28;8910;-79
2022/05/19 03:20:31;;;;;;;;;8.50;8.00;;;;;;;;5049293;28;8880;-79
2022/05/19 03:23:00;;;;;;;;;6.50;6.50;;;;;;;;5047887;28;8876;-79
2022/05/19 03:25:27;;;;;;;;;10.00;8.00;;;;;;;;5040281;28;8887;-79
2022/05/19 03:27:54;;;;;;;;;9.25;7.50;;;;;;;;5048105;28;8856;-79
2022/05/19 03:30:22;;;;;;;;;5.75;5.75;;;;;;;;5038692;28;8981;-79
2022/05/19 03:32:49;;;;;;;;;8.25;7.75;;;;;;;;5041939;28;8887;-79
2022/05/19 03:35:17;;;;;;;;;7.75;7.75;;;;;;;;5039711;28;8893;-78
2022/05/19 03:37:45;;;;;;;;;9.25;6.25;;;;;;;;5038967;28;8898;-79
2022/05/19 03:40:16;;;;;;;;;6.50;6.50;;;;;;;;5039902;28;8996;-79
2022/05/19 03:42:43;;;;;;;;;7.25;7.25;;;;;;;;5041087;28;8879;-78
2022/05/19 03:45:11;;;;;;;;;7.25;7.25;;;;;;;;5040867;28;9752;-78
2022/05/19 03:47:38;;;;;;;;;6.00;6.00;;;;;;;;5036916;28;8875;-78
2022/05/19 03:50:07;;;;;;;;;8.00;8.00;;;;;;;;5040464;28;8874;-78
2022/05/19 03:52:38;;;;;;;;;7.75;7.75;;;;;;;;5040934;28;8879;-78
2022/05/19 03:55:06;;;;;;;;;9.25;9.25;;;;;;;;5041012;28;8901;-78
2022/05/19 03:57:36;;;;;;;;;8.00;8.00;;;;;;;;5034084;28;9772;-79
2022/05/19 04:00:03;;;;;;;;;7.00;7.00;;;;;;;;5035807;28;9671;-79
2022/05/19 04:02:31;;;;;;;;;8.25;8.25;;;;;;;;5040698;28;8803;-79
2022/05/19 04:04:58;;;;;;;;;7.75;7.50;;;;;;;;5038958;28;8892;-79
2022/05/19 04:07:26;;;;;;;;;9.75;9.75;;;;;;;;5038852;28;8909;-79
2022/05/19 04:09:53;;;;;;;;;4.75;4.75;;;;;;;;5040098;28;8859;-78
2022/05/19 04:12:21;;;;;;;;;7.00;7.00;;;;;;;;5041349;28;8881;-79
2022/05/19 04:14:50;;;;;;;;;8.00;8.00;;;;;;;;5038219;28;8909;-80
2022/05/19 04:17:18;;;;;;;;;10.00;8.25;;;;;;;;5041197;28;8982;-79
2022/05/19 04:19:45;;;;;;;;;10.50;9.50;;;;;;;;5037532;28;8863;-78
2022/05/19 04:22:12;;;;;;;;;10.00;10.00;;;;;;;;5041111;28;8875;-79
2022/05/19 04:24:40;;;;;;;;;8.75;8.75;;;;;;;;5039697;28;8889;-79
2022/05/19 04:27:10;;;;;;;;;10.00;10.00;;;;;;;;5039173;28;8880;-79
2022/05/19 04:29:38;;;;;;;;;9.00;9.00;;;;;;;;5039803;28;8851;-80
2022/05/19 04:32:08;;;;;;;;;7.00;7.00;;;;;;;;5037372;28;8820;-81
2022/05/19 04:34:36;;;;;;;;;8.25;8.25;;;;;;;;5035992;28;9975;-82
2022/05/19 04:37:03;;;;;;;;;7.75;7.75;;;;;;;;5039092;28;8893;-84
2022/05/19 04:39:30;;;;;;;;;8.75;8.75;;;;;;;;5034635;28;8882;-83
2022/05/19 04:41:58;;;;;;;;;9.00;9.00;;;;;;;;5036105;28;8981;-82
2022/05/19 04:44:26;;;;;;;;;10.25;10.25;;;;;;;;5033741;28;8932;-81
2022/05/19 04:46:53;;;;;;;;;10.00;9.50;;;;;;;;5032611;28;8879;-82
2022/05/19 04:49:21;;;;;;;;;12.00;12.00;;;;;;;;5034403;28;8929;-84
2022/05/19 04:51:49;;;;;;;;;9.75;9.75;;;;;;;;5035932;28;8863;-80
2022/05/19 04:54:16;;;;;;;;;10.50;10.50;;;;;;;;5037940;28;8891;-80
2022/05/19 04:56:43;;;;;;;;;9.00;9.00;;;;;;;;5038480;28;8857;-79
2022/05/19 04:59:14;;;;;;;;;7.75;7.75;;;;;;;;5038866;28;8867;-80
2022/05/19 05:01:41;;;;;;;;;11.00;9.50;;;;;;;;5034520;28;8819;-80
2022/05/19 05:04:08;;;;;;;;;9.75;9.75;;;;;;;;5038297;28;8925;-79
2022/05/19 05:06:37;;;;;;;;;7.20;7.20;;;;;;;;5039371;28;8897;-80
2022/05/19 05:09:06;;;;;;;;;9.40;8.60;;;;;;;;5040617;28;8874;-80
2022/05/19 05:11:33;;;;;;;;;7.40;7.40;;;;;;;;5034942;28;8889;-81
2022/05/19 05:14:00;;;;;;;;;8.60;8.60;;;;;;;;5035703;28;8945;-80
2022/05/19 05:16:28;;;;;;;;;9.00;9.00;;;;;;;;5033847;28;8946;-80
2022/05/19 05:18:55;;;;;;;;;7.20;7.20;;;;;;;;5036150;28;8929;-81
2022/05/19 05:21:22;;;;;;;;;8.40;7.00;;;;;;;;5037212;28;8974;-80
2022/05/19 05:23:51;;;;;;;;;11.00;9.80;;;;;;;;5037151;28;9017;-80
2022/05/19 05:26:18;;;;;;;;;11.80;10.00;;;;;;;;5037471;28;9389;-81
2022/05/19 05:28:46;;;;;;;;;11.00;9.40;;;;;;;;5036019;28;8881;-80
2022/05/19 05:31:13;;;;;;;;;7.00;7.00;;;;;;;;5039922;28;8791;-78
2022/05/19 05:33:41;;;;;;;;;11.00;10.00;;;;;;;;5035473;28;8901;-79
2022/05/19 05:36:09;;;;;;;;;12.40;10.60;;;;;;;;5036186;28;9020;-79
2022/05/19 05:38:36;;;;;;;;;11.00;11.00;;;;;;;;5040272;28;8912;-79
2022/05/19 05:41:05;;;;;;;;;9.80;9.80;;;;;;;;5043600;28;8904;-80
2022/05/19 05:43:34;;;;;;;;;8.20;8.20;;;;;;;;5039565;28;8867;-77
2022/05/19 05:46:07;;;;;;;;;9.60;7.80;;;;;;;;5040051;28;8875;-81
2022/05/19 05:48:36;;;;;;;;;8.60;8.20;;;;;;;;5037634;28;8885;-76
2022/05/19 05:51:05;;;;;;;;;8.60;7.00;;;;;;;;5041247;28;8917;-75
2022/05/19 05:53:33;;;;;;;;;9.20;7.20;;;;;;;;5040177;28;9664;-75
2022/05/19 05:56:00;;;;;;;;;9.60;9.60;;;;;;;;5046437;28;9005;-75
2022/05/19 05:58:29;;;;;;;;;9.40;7.60;;;;;;;;5038092;28;8905;-74
2022/05/19 06:00:56;;;;;;;;;6.80;6.80;;;;;;;;5043220;28;9350;-75
2022/05/19 06:03:24;;;;;;;;;10.00;10.00;;;;;;;;5040138;28;8996;-74
2022/05/19 06:05:53;;;;;;;;;9.60;9.60;;;;;;;;5029946;28;9025;-74
2022/05/19 06:08:21;;;;;;;;;10.60;8.80;;;;;;;;5040372;28;8878;-73
2022/05/19 06:10:48;;;;;;;;;10.00;10.00;;;;;;;;5039125;28;8923;-72
2022/05/19 06:13:17;;;;;;;;;8.20;8.20;;;;;;;;5037917;28;8855;-75
2022/05/19 06:15:48;;;;;;;;;8.20;7.80;;;;;;;;5039175;28;8887;-75
2022/05/19 06:18:16;;;;;;;;;8.20;8.20;;;;;;;;5033839;28;8887;-75
2022/05/19 06:20:43;;;;;;;;;9.60;9.60;;;;;;;;5041163;28;8980;-75
2022/05/19 06:23:11;;;;;;;;;9.80;9.80;;;;;;;;5039831;28;8909;-73
2022/05/19 06:25:38;;;;;;;;;8.00;8.00;;;;;;;;5037474;28;8866;-73
2022/05/19 06:28:06;;;;;;;;;9.40;9.40;;;;;;;;5038563;28;8913;-73
2022/05/19 06:30:33;;;;;;;;;7.20;7.20;;;;;;;;5041700;28;9557;-73
2022/05/19 06:33:05;;;;;;;;;8.40;8.40;;;;;;;;5037861;28;8870;-75
2022/05/19 06:35:33;;;;;;;;;9.60;9.60;;;;;;;;5039004;28;8877;-74
2022/05/19 06:38:07;;;;;;;;;7.00;7.00;;;;;;;;5031935;28;8886;-74
2022/05/19 06:40:35;;;;;;;;;10.80;10.80;;;;;;;;5042914;28;8875;-74
2022/05/19 06:43:08;;;;;;;;;10.80;10.80;;;;;;;;5037030;28;8859;-76
2022/05/19 06:45:36;;;;;;;;;11.80;11.80;;;;;;;;5043671;28;8875;-76
2022/05/19 06:48:06;;;;;;;;;10.40;9.20;;;;;;;;5040559;28;8883;-76
2022/05/19 06:50:34;;;;;;;;;8.80;8.80;;;;;;;;5041425;28;8882;-75
2022/05/19 06:53:03;;;;;;;;;8.60;8.60;;;;;;;;5043039;28;8859;-76
2022/05/19 06:55:31;;;;;;;;;9.40;9.40;;;;;;;;5040651;28;9026;-74
2022/05/19 06:57:59;;;;;;;;;10.00;10.00;;;;;;;;5041654;28;8993;-74
2022/05/19 07:00:29;;;;;;;;;9.60;9.60;;;;;;;;5037557;28;8803;-77
2022/05/19 07:03:00;;;;;;;;;9.80;9.00;;;;;;;;5042108;28;9019;-75
2022/05/19 07:05:32;;;;;;;;;9.60;9.60;;;;;;;;5040059;28;8902;-75
2022/05/19 07:08:01;;;;;;;;;12.00;12.00;;;;;;;;5036783;28;8977;-75
2022/05/19 07:10:29;;;;;;;;;9.80;9.80;;;;;;;;5039134;28;8877;-75
2022/05/19 07:12:59;;;;;;;;;9.20;9.20;;;;;;;;5039004;28;8887;-75
2022/05/19 07:15:27;;;;;;;;;10.20;9.40;;;;;;;;5041835;28;8886;-75
2022/05/19 07:17:55;;;;;;;;;7.80;7.80;;;;;;;;5039330;28;9012;-75
2022/05/19 07:23:09;;;;;;;;;12.00;10.60;;;;;;;;5040226;28;8839;-75
2022/05/19 07:25:36;;;;;;;;;9.20;9.20;;;;;;;;5032630;28;8987;-75
2022/05/19 07:28:04;;;;;;;;;10.40;9.80;;;;;;;;5033217;28;9022;-75
2022/05/19 07:30:32;;;;;;;;;9.80;9.80;;;;;;;;5032014;28;8955;-75
2022/05/19 07:32:59;;;;;;;;;11.20;10.60;;;;;;;;5038592;28;8879;-76
2022/05/19 07:35:27;;;;;;;;;10.00;10.00;;;;;;;;5038926;28;8864;-75
2022/05/19 07:37:54;;;;;;;;;10.60;10.40;;;;;;;;5038047;28;8932;-77
2022/05/19 07:40:23;;;;;;;;;10.20;10.20;;;;;;;;5036018;28;8874;-75
2022/05/19 07:42:51;;;;;;;;;12.80;11.80;;;;;;;;5040899;28;8835;-74
2022/05/19 07:45:18;;;;;;;;;11.80;11.80;;;;;;;;5039546;28;9004;-76
2022/05/19 07:47:47;;;;;;;;;11.80;10.80;;;;;;;;5024711;28;8981;-76
2022/05/19 07:50:14;;;;;;;;;11.60;11.60;;;;;;;;5032139;28;8941;-76
2022/05/19 07:52:43;;;;;;;;;11.40;11.40;;;;;;;;5038453;28;8862;-76
2022/05/19 07:55:11;;;;;;;;;12.80;12.20;;;;;;;;5038259;28;8926;-76
2022/05/19 07:57:40;;;;;;;;;14.00;12.00;;;;;;;;5033640;28;8904;-77
2022/05/19 08:00:10;;;;;;;;;17.40;14.60;;;;;;;;5035677;28;8874;-76
2022/05/19 08:02:39;;;;;;;;;13.60;13.60;;;;;;;;5039696;28;8902;-76
2022/05/19 08:05:06;;;;;;;;;11.80;10.60;;;;;;;;5034976;28;8905;-77
2022/05/19 08:07:34;;;;;;;;;16.80;13.80;;;;;;;;5036460;28;9642;-78
2022/05/19 08:15:36;;;;;;;;;13.60;13.60;;;;;;;;5037863;28;8847;-76
2022/05/19 08:18:06;;;;;;;;;15.00;15.00;;;;;;;;5034117;28;8980;-77
2022/05/19 08:20:34;;;;;;;;;11.00;11.00;;;;;;;;5039328;28;8863;-76
2022/05/19 08:23:03;;;;;;;;;14.20;12.40;;;;;;;;5035385;28;8886;-76
2022/05/19 08:25:30;;;;;;;;;15.80;14.80;;;;;;;;5039207;28;9676;-76
2022/05/19 08:27:59;;;;;;;;;14.40;14.40;;;;;;;;5033784;28;8859;-76
2022/05/19 08:30:27;;;;;;;;;12.80;12.80;;;;;;;;5039493;28;8811;-76
2022/05/19 08:32:55;;;;;;;;;16.80;15.00;;;;;;;;5044877;28;8989;-75
2022/05/19 08:35:23;;;;;;;;;12.00;12.00;;;;;;;;5036517;28;8897;-76
2022/05/19 08:37:51;;;;;;;;;15.80;14.80;;;;;;;;5036913;28;9729;-78
2022/05/19 08:40:20;;;;;;;;;15.40;15.40;;;;;;;;5041352;28;8879;-75
2022/05/19 08:42:51;;;;;;;;;19.00;19.00;;;;;;;;5043773;28;8993;-75
2022/05/19 08:45:23;;;;;;;;;16.40;16.40;;;;;;;;5043934;28;9002;-75
2022/05/19 08:47:54;;;;;;;;;21.40;19.80;;;;;;;;5048635;28;8879;-74
2022/05/19 08:50:31;;;;;;;;;18.00;18.00;;;;;;;;5038268;28;9007;-76
2022/05/19 08:52:59;;;;;;;;;19.40;19.40;;;;;;;;5037860;28;8933;-76
2022/05/19 08:55:27;;;;;;;;;24.00;24.00;;;;;;;;5049192;28;8879;-76
2022/05/19 08:58:02;;;;;;;;;17.80;17.80;;;;;;;;5047445;28;8877;-78
2022/05/19 09:00:36;;;;;;;;;17.00;17.00;;;;;;;;5039871;28;8796;-77
2022/05/19 09:03:10;;;;;;;;;17.40;16.60;;;;;;;;5046048;28;8933;-74
2022/05/19 09:06:04;;;;;;;;;16.60;16.60;;;;;;;;5045343;28;8868;-77
2022/05/19 09:08:38;;;;;;;;;12.00;12.00;;;;;;;;5047872;28;9036;-74
2022/05/19 09:11:12;;;;;;;;;11.20;11.20;;;;;;;;5048163;28;8877;-76
2022/05/19 09:13:44;;;;;;;;;13.40;11.60;;;;;;;;5048457;28;8991;-76
2022/05/19 09:16:15;;;;;;;;;13.00;11.40;;;;;;;;5043222;28;8837;-76
2022/05/19 09:18:46;;;;;;;;;10.80;9.40;;;;;;;;5035077;28;8889;-74
2022/05/19 09:21:13;;;;;;;;;12.00;12.00;;;;;;;;5047846;28;8905;-74
2022/05/19 09:23:41;;;;;;;;;7.60;7.60;;;;;;;;5041782;28;8901;-74
2022/05/19 09:26:34;;;;;;;;;10.00;8.80;;;;;;;;5043771;28;9961;-76
2022/05/19 09:29:07;;;;;;;;;7.40;7.40;;;;;;;;5048955;28;8860;-75
2022/05/19 09:31:37;;;;;;;;;10.40;9.00;;;;;;;;5036791;28;8888;-77
2022/05/19 09:34:06;;;;;;;;;10.40;9.00;;;;;;;;5042440;28;8878;-76
2022/05/19 09:36:38;;;;;;;;;7.40;7.40;;;;;;;;5036522;28;8885;-75
2022/05/19 09:39:09;;;;;;;;;7.40;7.40;;;;;;;;5038018;28;8886;-74
2022/05/19 09:41:40;;;;;;;;;7.20;5.80;;;;;;;;5037190;28;8990;-76
2022/05/19 09:44:13;;;;;;;;;6.60;6.60;;;;;;;;5043362;28;8875;-76
2022/05/19 09:46:47;;;;;;;;;8.00;7.00;;;;;;;;5040407;28;8886;-74
2022/05/19 09:49:26;;;;;;;;;8.00;7.00;;;;;;;;5043964;28;8910;-74
2022/05/19 09:51:54;;;;;;;;;10.00;7.20;;;;;;;;5041401;28;8890;-74
2022/05/19 09:54:25;;;;;;;;;5.60;5.00;;;;;;;;5043280;28;8859;-75
2022/05/19 09:56:54;;;;;;;;;5.60;4.00;;;;;;;;5047382;28;8874;-75
2022/05/19 09:59:23;;;;;;;;;4.00;4.00;;;;;;;;5037387;28;8874;-74
2022/05/19 10:02:06;;;;;;;;;2.40;2.40;;;;;;;;5039815;28;9670;-75
2022/05/19 10:04:39;;;;;;;;;1.80;1.80;;;;;;;;5042311;28;8874;-76
2022/05/19 10:07:12;;;;;;;;;1.80;1.80;;;;;;;;5038280;28;8875;-74
2022/05/19 10:09:43;;;;;;;;;1.00;1.00;;;;;;;;5039590;28;8882;-74
2022/05/19 10:12:13;;;;;;;;;1.00;1.00;;;;;;;;5038469;28;8865;-74
2022/05/19 10:14:42;;;;;;;;;1.20;1.20;;;;;;;;5038341;28;8851;-74
2022/05/19 10:17:21;;;;;;;;;0.60;0.60;;;;;;;;5042282;28;8918;-74
2022/05/19 10:19:58;;;;;;;;;0.60;0.60;;;;;;;;5040728;28;8874;-73
2022/05/19 10:22:59;;;;;;;;;0.80;0.80;;;;;;;;5039514;28;8889;-74
2022/05/19 10:25:37;;;;;;;;;0.20;0.20;;;;;;;;5036348;28;8855;-74
2022/05/19 10:31:14;;;;;;;;;0.40;0.40;;;;;;;;5043195;28;8811;-73
2022/05/19 10:33:57;;;;;;;;;1.00;1.00;;;;;;;;5033484;28;8877;-77
2022/05/19 10:36:31;;;;;;;;;0.60;0.60;;;;;;;;5035235;28;8931;-75
2022/05/19 10:39:11;;;;;;;;;0.20;0.20;;;;;;;;5033474;28;8862;-76
2022/05/19 10:41:52;;;;;;;;;0.60;0.60;;;;;;;;5039092;28;8867;-75
2022/05/19 10:44:47;;;;;;;;;1.40;1.40;;;;;;;;5038627;28;8859;-74
2022/05/19 10:47:24;;;;;;;;;1.80;0.80;;;;;;;;5041201;28;8874;-72
2022/05/19 10:50:14;;;;;;;;;1.00;1.00;;;;;;;;5037990;28;9034;-76
2022/05/19 10:52:55;;;;;;;;;0.80;0.80;;;;;;;;5036584;28;8952;-74
2022/05/19 10:55:26;;;;;;;;;0.60;0.60;;;;;;;;5040923;28;8847;-74
2022/05/19 10:58:08;;;;;;;;;0.80;0.80;;;;;;;;5037944;28;9729;-74
2022/05/19 11:00:48;;;;;;;;;1.00;1.00;;;;;;;;5043710;28;8821;-77
2022/05/19 11:03:41;;;;;;;;;0.80;0.80;;;;;;;;5041113;28;8882;-76
2022/05/19 11:06:30;;;;;;;;;0.00;0.00;;;;;;;;5047076;28;8856;-76
2022/05/19 11:09:04;;;;;;;;;0.80;0.80;;;;;;;;5034616;28;8896;-74
2022/05/19 11:11:42;;;;;;;;;0.40;0.40;;;;;;;;5045177;28;8924;-74
2022/05/19 11:14:18;;;;;;;;;0.20;0.20;;;;;;;;5038607;28;8913;-75
2022/05/19 11:16:52;;;;;;;;;0.00;0.00;;;;;;;;5033302;28;8889;-77
2022/05/19 11:19:26;;;;;;;;;0.20;0.20;;;;;;;;5037738;28;8881;-77
2022/05/19 11:21:58;;;;;;;;;0.00;0.00;;;;;;;;5038494;28;8875;-77
2022/05/19 11:24:28;;;;;;;;;1.20;1.20;;;;;;;;5041314;28;8866;-76
2022/05/19 11:27:01;;;;;;;;;0.00;0.00;;;;;;;;5042302;28;8964;-75
2022/05/19 11:29:34;;;;;;;;;0.20;0.00;;;;;;;;5041385;28;8971;-75
2022/05/19 11:32:05;;;;;;;;;0.80;0.00;;;;;;;;5048269;28;8827;-76
2022/05/19 11:34:37;;;;;;;;;0.00;0.00;;;;;;;;5044882;28;8860;-75
2022/05/19 11:37:14;;;;;;;;;0.40;0.40;;;;;;;;5043562;28;8859;-75
2022/05/19 11:39:53;;;;;;;;;0.00;0.00;;;;;;;;5044295;28;8895;-75
2022/05/19 11:42:30;;;;;;;;;0.80;0.80;;;;;;;;5045638;28;8973;-75
2022/05/19 11:44:58;;;;;;;;;0.00;0.00;;;;;;;;5039948;28;9815;-76
2022/05/19 11:55:53;;;;;;;;;0.60;0.00;;;;;;;;5044875;28;8871;-75
2022/05/19 11:58:24;;;;;;;;;0.00;0.00;;;;;;;;5039281;28;8868;-75
2022/05/19 12:00:59;;;;;;;;;0.00;0.00;;;;;;;;5044137;28;8953;-74
2022/05/19 12:03:30;;;;;;;;;1.80;0.00;;;;;;;;5032047;28;8949;-74
2022/05/19 12:06:00;;;;;;;;;0.20;0.20;;;;;;;;5043774;28;9712;-74
2022/05/19 12:08:35;;;;;;;;;0.00;0.00;;;;;;;;5037000;28;8875;-74
2022/05/19 12:11:15;;;;;;;;;0.00;0.00;;;;;;;;5038253;28;9038;-74
2022/05/19 12:13:48;;;;;;;;;0.00;0.00;;;;;;;;5036960;28;8855;-73
2022/05/19 12:16:18;;;;;;;;;0.00;0.00;;;;;;;;5034922;28;8899;-73
2022/05/19 12:19:02;;;;;;;;;0.00;0.00;;;;;;;;5038404;28;9009;-74
2022/05/19 12:21:42;;;;;;;;;1.00;0.00;;;;;;;;5038180;28;8894;-72
2022/05/19 12:24:15;;;;;;;;;0.00;0.00;;;;;;;;5040584;28;8897;-72
2022/05/19 12:26:53;;;;;;;;;0.00;0.00;;;;;;;;5035402;28;8878;-73
2022/05/19 12:29:31;;;;;;;;;1.00;1.00;;;;;;;;5038443;28;8916;-72
2022/05/19 12:32:07;;;;;;;;;0.00;0.00;;;;;;;;5036463;28;8835;-76
2022/05/19 12:34:43;;;;;;;;;0.80;0.80;;;;;;;;5038180;28;9676;-74
2022/05/19 12:37:34;;;;;;;;;0.00;0.00;;;;;;;;5035546;28;8863;-74
2022/05/19 12:40:25;;;;;;;;;3.00;0.20;;;;;;;;5037141;28;8847;-75
2022/05/19 12:43:16;;;;;;;;;0.20;0.20;;;;;;;;5036774;28;8984;-75
2022/05/19 12:45:48;;;;;;;;;0.80;0.80;;;;;;;;5032905;28;8855;-75
2022/05/19 12:48:25;;;;;;;;;0.00;0.00;;;;;;;;5037251;28;8857;-75
2022/05/19 12:50:54;;;;;;;;;0.80;0.80;;;;;;;;5039218;28;8887;-76
2022/05/19 12:53:44;;;;;;;;;1.20;1.20;;;;;;;;5038244;28;8859;-73
2022/05/19 12:56:59;;;;;;;;;1.00;1.00;;;;;;;;5037654;28;8863;-74
2022/05/19 12:59:42;;;;;;;;;1.00;1.00;;;;;;;;5018501;28;8903;-75
2022/05/19 13:02:13;;;;;;;;;0.00;0.00;;;;;;;;5035220;28;8835;-76
2022/05/19 13:04:46;;;;;;;;;0.80;0.80;;;;;;;;5038771;28;8863;-74
2022/05/19 13:07:19;;;;;;;;;0.80;0.80;;;;;;;;5036555;28;8883;-75
2022/05/19 13:09:56;;;;;;;;;0.20;0.20;;;;;;;;5037447;28;8867;-76
2022/05/19 13:12:27;;;;;;;;;0.60;0.60;;;;;;;;5036841;28;8887;-77
2022/05/19 13:14:58;;;;;;;;;0.60;0.60;;;;;;;;5038397;28;8871;-78
2022/05/19 13:17:34;;;;;;;;;0.20;0.20;;;;;;;;5042566;28;8883;-78
2022/05/19 13:20:05;;;;;;;;;0.00;0.00;;;;;;;;5044048;28;9708;-76
2022/05/19 13:22:37;;;;;;;;;0.00;0.00;;;;;;;;5044070;28;8897;-78
2022/05/19 13:25:07;;;;;;;;;1.00;1.00;;;;;;;;5040354;28;8889;-76
2022/05/19 13:30:26;;;;;;;;;0.00;0.00;;;;;;;;5035590;28;8801;-79
2022/05/19 13:33:05;;;;;;;;;1.60;0.00;;;;;;;;5042774;28;8992;-80
2022/05/19 13:35:33;;;;;;;;;1.40;1.00;;;;;;;;5040218;28;8882;-81
2022/05/19 13:38:03;;;;;;;;;0.40;0.40;;;;;;;;5044590;28;8889;-78
2022/05/19 13:40:33;;;;;;;;;2.00;0.00;;;;;;;;5044053;28;8934;-78
2022/05/19 13:43:04;;;;;;;;;0.80;0.80;;;;;;;;5037103;28;8895;-81
2022/05/19 13:45:36;;;;;;;;;0.00;0.00;;;;;;;;5039798;28;8885;-83
2022/05/19 13:48:14;;;;;;;;;0.40;0.40;;;;;;;;5040225;28;9561;-79
2022/05/19 13:50:41;;;;;;;;;0.40;0.40;;;;;;;;5037965;28;8871;-80
2022/05/19 13:53:09;;;;;;;;;0.00;0.00;;;;;;;;5041570;28;8883;-81
2022/05/19 13:55:39;;;;;;;;;0.00;0.00;;;;;;;;5042999;28;9140;-81
2022/05/19 13:58:17;;;;;;;;;0.00;0.00;;;;;;;;5043661;28;9589;-88
2022/05/19 14:00:45;;;;;;;;;0.00;0.00;;;;;;;;5043125;28;8831;-81
2022/05/19 14:03:12;;;;;;;;;0.00;0.00;;;;;;;;5041069;28;8866;-82
2022/05/19 14:05:42;;;;;;;;;0.60;0.00;;;;;;;;5044372;28;9025;-84
2022/05/19 14:08:11;;;;;;;;;0.00;0.00;;;;;;;;5043716;28;9621;-78
2022/05/19 14:10:41;;;;;;;;;0.00;0.00;;;;;;;;5041685;28;8854;-84
2022/05/19 14:13:13;;;;;;;;;0.00;0.00;;;;;;;;5038893;28;8885;-80
2022/05/19 14:15:49;;;;;;;;;0.00;0.00;;;;;;;;5040026;28;8843;-75
2022/05/19 14:18:20;;;;;;;;;0.40;0.40;;;;;;;;5031294;28;8855;-80
2022/05/19 14:20:49;;;;;;;;;0.20;0.20;;;;;;;;5039766;28;8894;-82
2022/05/19 14:23:20;;;;;;;;;1.00;0.00;;;;;;;;5030609;28;8863;-82
2022/05/19 14:25:51;;;;;;;;;0.20;0.20;;;;;;;;5035620;28;8863;-81
2022/05/19 14:28:25;;;;;;;;;0.40;0.40;;;;;;;;5032799;28;8863;-82
2022/05/19 14:30:55;;;;;;;;;0.00;0.00;;;;;;;;5031512;28;8831;-82
2022/05/19 14:33:25;;;;;;;;;1.80;1.20;;;;;;;;5035688;28;8956;-80
2022/05/19 14:35:57;;;;;;;;;1.00;1.00;;;;;;;;5033774;28;8885;-80
2022/05/19 14:38:31;;;;;;;;;1.40;1.20;;;;;;;;5032959;28;8889;-81
2022/05/19 14:43:52;;;;;;;;;0.00;0.00;;;;;;;;5033493;28;8890;-82
2022/05/19 14:46:22;;;;;;;;;1.00;1.00;;;;;;;;5035167;28;8851;-81
2022/05/19 14:48:51;;;;;;;;;1.40;1.00;;;;;;;;5030100;28;8865;-81
2022/05/19 14:51:24;;;;;;;;;1.80;1.80;;;;;;;;5033823;28;8898;-83
2022/05/19 14:53:52;;;;;;;;;0.00;0.00;;;;;;;;5031729;28;8865;-82
2022/05/19 14:56:22;;;;;;;;;1.40;1.40;;;;;;;;5037056;28;8863;-83
2022/05/19 14:58:57;;;;;;;;;0.60;0.60;;;;;;;;5033826;28;8865;-80
2022/05/19 15:01:24;;;;;;;;;2.00;2.00;;;;;;;;5027038;28;8802;-83
2022/05/19 15:03:52;;;;;;;;;1.80;1.80;;;;;;;;5033711;28;9716;-84
2022/05/19 15:06:20;;;;;;;;;1.20;1.20;;;;;;;;5033323;28;8882;-83
2022/05/19 15:08:52;;;;;;;;;1.80;1.80;;;;;;;;5034894;28;8897;-82
2022/05/19 15:11:20;;;;;;;;;1.40;0.40;;;;;;;;5033784;28;8924;-82
2022/05/19 15:13:47;;;;;;;;;1.60;1.60;;;;;;;;5034515;28;8910;-81
2022/05/19 15:16:16;;;;;;;;;1.20;1.20;;;;;;;;5018725;28;8871;-81
2022/05/19 15:18:44;;;;;;;;;2.20;2.20;;;;;;;;5033009;28;8902;-84
2022/05/19 15:21:12;;;;;;;;;0.20;0.20;;;;;;;;5032592;28;8865;-84
2022/05/19 15:23:39;;;;;;;;;0.20;0.20;;;;;;;;5035305;28;8871;-80
2022/05/19 15:26:07;;;;;;;;;1.80;1.80;;;;;;;;5034549;28;8897;-83
2022/05/19 15:28:35;;;;;;;;;0.00;0.00;;;;;;;;5029574;28;9691;-80
2022/05/19 15:31:03;;;;;;;;;0.00;0.00;;;;;;;;5028756;28;8829;-84
2022/05/19 15:33:32;;;;;;;;;1.80;1.80;;;;;;;;5038014;28;8893;-82
2022/05/19 15:35:59;;;;;;;;;0.80;0.80;;;;;;;;5032520;28;8895;-80
2022/05/19 15:38:27;;;;;;;;;2.40;0.80;;;;;;;;5033179;28;8870;-82
2022/05/19 15:40:54;;;;;;;;;1.00;1.00;;;;;;;;5032993;28;8911;-83